createdAt,value
2023-01-17T00:02:22.319Z,94.72
2023-01-17T00:05:07.871Z,94.66
2023-01-17T00:07:54.726Z,94.69
2023-01-17T00:10:29.004Z,94.64
2023-01-17T00:13:00.501Z,94.59
2023-01-17T00:15:28.432Z,94.52
2023-01-17T00:17:56.029Z,94.42
2023-01-17T00:20:44.147Z,94.45
2023-01-17T00:23:38.202Z,94.39
2023-01-17T00:26:19.013Z,94.31
2023-01-17T00:28:46.745Z,94.36
2023-01-17T00:31:15.557Z,94.37
2023-01-17T00:33:45.520Z,94.45
2023-01-17T00:36:12.109Z,94.36
2023-01-17T00:38:41.172Z,94.37
2023-01-17T00:41:14.304Z,94.43
2023-01-17T00:43:59.742Z,94.39
2023-01-17T00:46:45.668Z,94.07
2023-01-17T00:49:33.319Z,93.94
2023-01-17T00:52:19.278Z,93.98
2023-01-17T00:55:08.716Z,94.08
2023-01-17T00:57:53.990Z,94.18
2023-01-17T01:00:40.797Z,94.29
2023-01-17T01:03:33.043Z,94.44
2023-01-17T01:06:22.830Z,94.53
2023-01-17T01:09:12.522Z,94.67
2023-01-17T01:11:57.609Z,94.79
2023-01-17T01:14:42.902Z,94.96
2023-01-17T01:17:30.492Z,95.09
2023-01-17T01:20:16.481Z,95.35
2023-01-17T01:23:03.018Z,95.45
2023-01-17T01:25:48.627Z,95.68
2023-01-17T01:28:34.540Z,95.72
2023-01-17T01:31:23.897Z,95.91
2023-01-17T01:33:54.417Z,96.05
2023-01-17T01:36:22.225Z,95.96
2023-01-17T01:38:50.565Z,96.12
2023-01-17T01:41:17.144Z,96.31
2023-01-17T01:43:51.073Z,96.18
2023-01-17T01:46:37.739Z,96.36
2023-01-17T01:49:24.834Z,96.16
2023-01-17T01:51:59.215Z,96.55
2023-01-17T01:54:32.673Z,96.49
2023-01-17T01:57:03.571Z,96.67
2023-01-17T01:59:31.322Z,96.61
2023-01-17T02:02:18.166Z,96.66
2023-01-17T02:04:47.390Z,96.78
2023-01-17T02:07:20.334Z,96.75
2023-01-17T02:09:47.673Z,96.83
2023-01-17T02:12:14.647Z,96.98
2023-01-17T02:14:43.700Z,96.96
2023-01-17T02:17:18.957Z,97.01
2023-01-17T02:20:17.357Z,97.28
2023-01-17T02:23:20.585Z,97.11
2023-01-17T02:26:26.845Z,97.26
2023-01-17T02:29:11.747Z,97.36
2023-01-17T02:31:51.310Z,97.28
2023-01-17T02:34:22.364Z,97.17
2023-01-17T02:37:18.252Z,97.21
2023-01-17T02:39:56.171Z,97.14
2023-01-17T02:42:31.596Z,97.05
2023-01-17T02:45:02.949Z,96.97
2023-01-17T02:47:32.254Z,97.00
2023-01-17T02:50:09.879Z,97.06
2023-01-17T02:52:55.539Z,97.09
2023-01-17T02:55:37.194Z,96.94
2023-01-17T02:58:36.802Z,97.11
2023-01-17T03:01:31.363Z,97.00
2023-01-17T03:04:04.977Z,97.14
2023-01-17T03:06:44.070Z,97.02
2023-01-17T03:09:12.855Z,97.09
2023-01-17T03:11:39.430Z,97.23
2023-01-17T03:14:09.666Z,97.30
2023-01-17T03:16:36.634Z,97.15
2023-01-17T03:19:03.981Z,97.28
2023-01-17T03:21:31.157Z,97.27
2023-01-17T03:23:58.808Z,97.33
2023-01-17T03:26:25.498Z,97.36
2023-01-17T03:28:52.523Z,97.41
2023-01-17T03:31:20.103Z,97.35
2023-01-17T03:33:47.366Z,97.45
2023-01-17T03:36:15.971Z,97.65
2023-01-17T03:38:42.587Z,97.45
2023-01-17T03:41:09.376Z,97.58
2023-01-17T03:43:36.518Z,97.47
2023-01-17T03:46:05.329Z,97.44
2023-01-17T03:48:36.605Z,97.44
2023-01-17T03:51:03.620Z,97.64
2023-01-17T03:53:30.460Z,97.54
2023-01-17T03:55:59.564Z,97.51
2023-01-17T03:58:29.552Z,97.56
2023-01-17T04:00:56.566Z,97.57
2023-01-17T04:03:23.533Z,97.50
2023-01-17T04:05:51.580Z,97.46
2023-01-17T04:08:18.408Z,97.60
2023-01-17T04:10:45.404Z,97.51
2023-01-17T04:13:13.593Z,97.74
2023-01-17T04:15:46.234Z,97.44
2023-01-17T04:18:13.948Z,97.59
2023-01-17T04:20:41.227Z,97.57
2023-01-17T04:23:08.753Z,97.66
2023-01-17T04:25:35.597Z,97.96
2023-01-17T04:28:07.266Z,97.59
2023-01-17T04:30:34.118Z,97.61
2023-01-17T04:33:00.849Z,97.69
2023-01-17T04:35:30.649Z,97.60
2023-01-17T04:37:57.583Z,97.68
2023-01-17T04:40:25.889Z,97.63
2023-01-17T04:42:54.396Z,97.59
2023-01-17T04:45:20.857Z,97.50
2023-01-17T04:47:48.390Z,97.55
2023-01-17T04:50:18.509Z,97.27
2023-01-17T04:52:46.481Z,97.54
2023-01-17T04:55:13.275Z,97.64
2023-01-17T04:57:40.325Z,97.51
2023-01-17T05:00:07.923Z,97.44
2023-01-17T05:02:35.025Z,97.49
2023-01-17T05:05:04.611Z,97.55
2023-01-17T05:07:31.313Z,97.50
2023-01-17T05:10:01.197Z,97.43
2023-01-17T05:12:28.411Z,97.37
2023-01-17T05:14:55.197Z,97.43
2023-01-17T05:17:22.469Z,97.43
2023-01-17T05:19:55.030Z,97.42
2023-01-17T05:22:24.050Z,97.49
2023-01-17T05:24:51.377Z,97.45
2023-01-17T05:27:19.406Z,97.49
2023-01-17T05:29:46.068Z,97.31
2023-01-17T05:32:12.915Z,97.50
2023-01-17T05:34:39.833Z,97.47
2023-01-17T05:37:06.496Z,97.38
2023-01-17T05:39:33.505Z,97.38
2023-01-17T05:42:00.410Z,97.36
2023-01-17T05:44:27.702Z,97.21
2023-01-17T05:46:57.345Z,97.34
2023-01-17T05:49:24.287Z,97.37
2023-01-17T05:51:54.723Z,97.29
2023-01-17T05:54:23.580Z,97.44
2023-01-17T05:56:50.234Z,97.31
2023-01-17T05:59:20.555Z,97.41
2023-01-17T06:01:55.085Z,97.34
2023-01-17T06:04:22.248Z,97.42
2023-01-17T06:06:49.468Z,97.17
2023-01-17T06:09:16.313Z,97.36
2023-01-17T06:11:44.970Z,97.42
2023-01-17T06:14:14.026Z,97.34
2023-01-17T06:16:41.001Z,97.20
2023-01-17T06:19:09.744Z,97.28
2023-01-17T06:21:36.581Z,97.51
2023-01-17T06:24:04.405Z,97.22
2023-01-17T06:26:31.115Z,97.54
2023-01-17T06:29:00.502Z,97.46
2023-01-17T06:31:29.022Z,97.43
2023-01-17T06:33:55.609Z,97.40
2023-01-17T06:36:24.395Z,97.47
2023-01-17T06:38:54.879Z,97.45
2023-01-17T06:41:23.278Z,97.51
2023-01-17T06:43:50.106Z,97.49
2023-01-17T06:46:19.215Z,97.31
2023-01-17T06:48:48.773Z,97.21
2023-01-17T06:51:15.951Z,97.29
2023-01-17T06:53:43.909Z,97.37
2023-01-17T06:56:13.226Z,97.30
2023-01-17T06:58:42.075Z,97.28
2023-01-17T07:01:10.522Z,97.09
2023-01-17T07:03:37.945Z,97.23
2023-01-17T07:06:07.318Z,97.17
2023-01-17T07:08:34.304Z,97.29
2023-01-17T07:11:03.938Z,97.20
2023-01-17T07:13:36.634Z,97.11
2023-01-17T07:16:04.726Z,97.03
2023-01-17T07:18:37.557Z,97.08
2023-01-17T07:21:05.409Z,96.70
2023-01-17T07:23:34.623Z,97.05
2023-01-17T07:26:05.213Z,97.05
2023-01-17T07:28:33.551Z,97.17
2023-01-17T07:31:06.108Z,97.04
2023-01-17T07:33:33.337Z,96.97
2023-01-17T07:36:04.800Z,97.11
2023-01-17T07:38:34.164Z,97.06
2023-01-17T07:41:03.651Z,97.18
2023-01-17T07:43:30.198Z,97.26
2023-01-17T07:45:57.617Z,97.25
2023-01-17T07:48:25.538Z,97.16
2023-01-17T07:50:57.299Z,97.26
2023-01-17T07:53:31.540Z,97.13
2023-01-17T07:56:04.405Z,97.26
2023-01-17T07:58:33.043Z,97.17
2023-01-17T08:01:08.334Z,97.56
2023-01-17T08:03:39.852Z,97.15
2023-01-17T08:06:22.198Z,97.20
2023-01-17T08:08:53.282Z,97.31
2023-01-17T08:11:19.991Z,97.37
2023-01-17T08:13:46.507Z,97.17
2023-01-17T08:16:13.784Z,96.86
2023-01-17T08:18:40.595Z,96.84
2023-01-17T08:21:14.575Z,96.51
2023-01-17T08:23:47.315Z,95.93
2023-01-17T08:26:22.718Z,95.59
2023-01-17T08:29:01.653Z,95.11
2023-01-17T08:31:30.510Z,94.75
2023-01-17T08:33:59.119Z,94.39
2023-01-17T08:36:27.763Z,94.01
2023-01-17T08:38:55.603Z,93.69
2023-01-17T08:41:26.679Z,93.82
2023-01-17T08:43:55.592Z,94.06
2023-01-17T08:46:23.312Z,92.35
2023-01-17T08:48:56.341Z,91.45
2023-01-17T08:51:26.296Z,90.72
2023-01-17T08:53:55.649Z,91.34
2023-01-17T08:56:23.847Z,91.47
2023-01-17T08:58:51.076Z,91.98
2023-01-17T09:01:18.606Z,91.96
2023-01-17T09:03:45.741Z,91.92
2023-01-17T09:06:16.252Z,92.02
2023-01-17T09:08:47.127Z,92.28
2023-01-17T09:11:17.189Z,92.42
2023-01-17T09:13:44.911Z,91.98
2023-01-17T09:16:14.156Z,91.54
2023-01-17T09:18:41.907Z,90.75
2023-01-17T09:21:17.676Z,90.66
2023-01-17T09:23:44.706Z,90.91
2023-01-17T09:26:25.800Z,90.53
2023-01-17T09:28:53.362Z,91.07
2023-01-17T09:31:23.559Z,91.24
2023-01-17T09:33:51.967Z,91.26
2023-01-17T09:36:19.009Z,91.15
2023-01-17T09:38:46.056Z,91.38
2023-01-17T09:41:34.718Z,91.33
2023-01-17T09:44:25.889Z,91.33
2023-01-17T09:46:56.241Z,90.96
2023-01-17T09:50:20.283Z,90.73
2023-01-17T09:52:49.415Z,90.88
2023-01-17T09:55:18.101Z,90.84
2023-01-17T09:57:57.703Z,90.99
2023-01-17T10:00:41.098Z,91.48
2023-01-17T10:03:25.994Z,91.53
2023-01-17T10:06:19.511Z,90.44
2023-01-17T10:09:04.202Z,90.54
2023-01-17T10:11:51.814Z,90.62
2023-01-17T10:14:46.869Z,90.84
2023-01-17T10:17:36.470Z,90.54
2023-01-17T10:20:35.687Z,90.73
2023-01-17T10:23:38.121Z,90.21
2023-01-17T10:26:11.593Z,89.79
2023-01-17T10:28:47.060Z,89.18
2023-01-17T10:31:19.808Z,89.51
2023-01-17T10:33:59.651Z,88.91
2023-01-17T10:36:29.727Z,88.62
2023-01-17T10:39:00.812Z,88.01
2023-01-17T10:41:36.983Z,88.51
2023-01-17T10:44:31.432Z,88.36
2023-01-17T10:47:07.676Z,88.51
2023-01-17T10:49:34.413Z,88.79
2023-01-17T10:52:39.549Z,88.81
2023-01-17T10:55:16.022Z,88.56
2023-01-17T10:57:48.793Z,88.50
2023-01-17T11:00:40.234Z,88.63
2023-01-17T11:03:10.385Z,88.07
2023-01-17T11:05:37.914Z,87.36
2023-01-17T11:08:08.157Z,86.34
2023-01-17T11:10:47.257Z,84.59
2023-01-17T11:13:22.723Z,85.08
2023-01-17T11:15:53.409Z,86.10
2023-01-17T11:18:22.104Z,86.66
2023-01-17T11:20:50.127Z,86.55
2023-01-17T11:23:21.713Z,86.13
2023-01-17T11:25:58.135Z,86.26
2023-01-17T11:28:30.707Z,86.40
2023-01-17T11:31:27.550Z,86.93
2023-01-17T11:34:22.609Z,87.05
2023-01-17T11:36:50.756Z,87.19
2023-01-17T11:39:17.306Z,87.63
2023-01-17T11:41:46.099Z,87.11
2023-01-17T11:44:29.603Z,86.02
2023-01-17T11:47:09.914Z,85.94
2023-01-17T11:49:44.304Z,86.41
2023-01-17T11:52:18.105Z,85.64
2023-01-17T11:54:47.914Z,85.21
2023-01-17T11:57:34.229Z,83.97
2023-01-17T12:00:45.997Z,84.23
2023-01-17T12:03:40.692Z,84.32
2023-01-17T12:06:10.386Z,84.18
2023-01-17T12:08:56.082Z,83.76
2023-01-17T12:11:32.188Z,83.56
2023-01-17T12:14:37.269Z,83.10
2023-01-17T12:17:48.825Z,82.88
2023-01-17T12:20:25.121Z,82.84
2023-01-17T12:23:14.177Z,82.88
2023-01-17T12:26:19.488Z,82.48
2023-01-17T12:29:30.521Z,82.26
2023-01-17T12:32:15.184Z,82.37
2023-01-17T12:35:10.938Z,81.71
2023-01-17T12:37:41.845Z,81.50
2023-01-17T12:40:22.513Z,80.20
2023-01-17T12:43:25.222Z,79.09
2023-01-17T12:45:55.697Z,78.18
2023-01-17T12:48:26.409Z,78.37
2023-01-17T12:51:07.062Z,76.46
2023-01-17T12:54:09.346Z,75.83
2023-01-17T12:56:42.650Z,75.99
2023-01-17T12:59:16.083Z,77.34
2023-01-17T13:01:58.065Z,75.81
2023-01-17T13:04:24.882Z,75.39
2023-01-17T13:07:01.108Z,74.92
2023-01-17T13:09:38.307Z,75.57
2023-01-17T13:12:06.866Z,75.42
2023-01-17T13:14:33.774Z,75.62
2023-01-17T13:17:18.860Z,74.70
2023-01-17T13:20:03.166Z,74.69
2023-01-17T13:22:31.968Z,74.53
2023-01-17T13:25:37.443Z,74.27
2023-01-17T13:28:13.271Z,75.00
2023-01-17T13:30:57.035Z,74.29
2023-01-17T13:33:58.165Z,74.92
2023-01-17T13:36:48.089Z,73.83
2023-01-17T13:39:33.666Z,73.24
2023-01-17T13:42:11.845Z,73.15
2023-01-17T13:44:38.986Z,73.48
2023-01-17T13:47:17.602Z,73.05
2023-01-17T13:49:49.522Z,73.07
2023-01-17T13:52:19.533Z,72.36
2023-01-17T13:54:53.320Z,72.51
2023-01-17T13:57:29.235Z,72.40
2023-01-17T13:59:58.073Z,72.03
2023-01-17T14:02:34.727Z,71.60
2023-01-17T14:05:42.603Z,71.32
2023-01-17T14:08:21.957Z,72.09
2023-01-17T14:10:52.189Z,71.74
2023-01-17T14:13:45.350Z,71.87
2023-01-17T14:16:27.809Z,72.11
2023-01-17T14:18:56.149Z,72.17
2023-01-17T14:21:24.085Z,72.07
2023-01-17T14:23:54.759Z,71.96
2023-01-17T14:26:28.706Z,71.94
2023-01-17T14:28:59.120Z,71.92
2023-01-17T14:31:28.605Z,71.96
2023-01-17T14:33:55.818Z,72.46
2023-01-17T14:36:26.609Z,72.75
2023-01-17T14:38:53.235Z,72.69
2023-01-17T14:41:23.495Z,72.79
2023-01-17T14:43:53.575Z,73.10
2023-01-17T14:46:27.619Z,73.31
2023-01-17T14:49:18.582Z,73.74
2023-01-17T14:51:59.705Z,73.93
2023-01-17T14:54:26.582Z,74.46
2023-01-17T14:57:14.338Z,74.66
2023-01-17T14:59:41.163Z,75.21
2023-01-17T15:02:15.459Z,75.65
2023-01-17T15:04:43.340Z,75.93
2023-01-17T15:07:17.013Z,76.25
2023-01-17T15:09:44.844Z,76.55
2023-01-17T15:12:14.563Z,76.68
2023-01-17T15:14:47.129Z,76.34
2023-01-17T15:17:43.830Z,76.55
2023-01-17T15:20:17.012Z,77.04
2023-01-17T15:22:43.999Z,77.53
2023-01-17T15:25:12.094Z,77.66
2023-01-17T15:27:39.155Z,78.16
2023-01-17T15:30:08.886Z,78.38
2023-01-17T15:32:37.558Z,78.24
2023-01-17T15:35:08.392Z,78.30
2023-01-17T15:37:40.083Z,78.96
2023-01-17T15:40:18.122Z,79.53
2023-01-17T15:42:49.742Z,80.26
2023-01-17T15:45:22.633Z,80.83
2023-01-17T15:47:49.858Z,81.35
2023-01-17T15:50:26.785Z,81.87
2023-01-17T15:52:57.683Z,82.32
2023-01-17T15:55:34.854Z,82.49
2023-01-17T15:58:02.883Z,82.80
2023-01-17T16:00:40.600Z,82.74
2023-01-17T16:03:30.756Z,82.31
2023-01-17T16:06:00.354Z,82.63
2023-01-17T16:08:38.956Z,83.21
2023-01-17T16:11:11.458Z,83.71
2023-01-17T16:13:43.609Z,84.19
2023-01-17T16:16:23.035Z,84.58
2023-01-17T16:18:58.630Z,84.91
2023-01-17T16:21:29.772Z,85.00
2023-01-17T16:23:56.823Z,85.45
2023-01-17T16:26:24.457Z,85.79
2023-01-17T16:28:55.118Z,85.87
2023-01-17T16:31:23.062Z,86.01
2023-01-17T16:33:52.307Z,86.15
2023-01-17T16:36:21.205Z,86.30
2023-01-17T16:38:50.974Z,86.58
2023-01-17T16:41:20.686Z,86.75
2023-01-17T16:43:57.652Z,87.01
2023-01-17T16:46:27.014Z,86.91
2023-01-17T16:49:02.200Z,87.06
2023-01-17T16:51:29.622Z,87.16
2023-01-17T16:53:56.242Z,87.36
2023-01-17T16:56:23.164Z,87.36
2023-01-17T16:58:53.160Z,87.58
2023-01-17T17:01:21.386Z,87.68
2023-01-17T17:03:48.384Z,87.73
2023-01-17T17:06:15.405Z,87.88
2023-01-17T17:08:43.437Z,87.74
2023-01-17T17:11:19.709Z,88.20
2023-01-17T17:13:48.624Z,88.25
2023-01-17T17:16:22.453Z,88.37
2023-01-17T17:19:00.860Z,88.24
2023-01-17T17:21:28.152Z,88.36
2023-01-17T17:23:59.626Z,88.50
2023-01-17T17:26:31.262Z,88.64
2023-01-17T17:29:02.200Z,88.79
2023-01-17T17:31:30.192Z,88.84
2023-01-17T17:34:01.282Z,89.12
2023-01-17T17:36:28.195Z,88.86
2023-01-17T17:38:57.445Z,89.02
2023-01-17T17:41:30.929Z,88.81
2023-01-17T17:44:00.331Z,88.72
2023-01-17T17:46:29.342Z,88.81
2023-01-17T17:48:57.919Z,88.86
2023-01-17T17:51:24.345Z,88.86
2023-01-17T17:53:52.823Z,88.83
2023-01-17T17:56:20.790Z,88.98
2023-01-17T17:58:49.785Z,89.10
2023-01-17T18:01:16.778Z,89.22
2023-01-17T18:03:43.788Z,89.19
2023-01-17T18:06:12.660Z,89.14
2023-01-17T18:08:39.816Z,88.85
2023-01-17T18:11:11.672Z,89.06
2023-01-17T18:13:39.429Z,89.15
2023-01-17T18:16:11.477Z,89.12
2023-01-17T18:18:43.818Z,88.99
2023-01-17T18:21:23.656Z,88.93
2023-01-17T18:23:58.779Z,89.02
2023-01-17T18:26:31.126Z,89.01
2023-01-17T18:28:59.721Z,89.04
2023-01-17T18:31:28.748Z,88.91
2023-01-17T18:33:57.995Z,89.05
2023-01-17T18:36:25.896Z,88.97
2023-01-17T18:38:52.623Z,88.87
2023-01-17T18:41:22.137Z,88.82
2023-01-17T18:43:48.680Z,88.71
2023-01-17T18:46:18.769Z,88.79
2023-01-17T18:48:49.258Z,88.73
2023-01-17T18:51:21.816Z,88.57
2023-01-17T18:53:48.502Z,88.51
2023-01-17T18:56:20.276Z,88.47
2023-01-17T18:58:48.710Z,88.42
2023-01-17T19:01:16.802Z,88.36
2023-01-17T19:03:47.246Z,88.23
2023-01-17T19:06:17.713Z,88.33
2023-01-17T19:08:45.325Z,88.19
2023-01-17T19:11:14.077Z,88.05
2023-01-17T19:13:42.009Z,88.06
2023-01-17T19:16:13.470Z,87.94
2023-01-17T19:18:40.432Z,87.72
2023-01-17T19:21:11.680Z,87.68
2023-01-17T19:23:41.512Z,87.57
2023-01-17T19:26:10.062Z,87.57
2023-01-17T19:28:40.461Z,87.46
2023-01-17T19:31:10.673Z,87.35
2023-01-17T19:33:41.327Z,87.59
2023-01-17T19:36:10.487Z,87.39
2023-01-17T19:38:37.906Z,87.47
2023-01-17T19:41:15.025Z,87.33
2023-01-17T19:43:42.579Z,87.17
2023-01-17T19:46:11.285Z,87.08
2023-01-17T19:48:40.280Z,87.04
2023-01-17T19:51:12.911Z,87.08
2023-01-17T19:53:42.668Z,86.91
2023-01-17T19:56:11.899Z,87.11
2023-01-17T19:58:39.256Z,86.88
2023-01-17T20:01:11.584Z,86.96
2023-01-17T20:03:44.328Z,87.00
2023-01-17T20:06:16.576Z,87.09
2023-01-17T20:08:43.604Z,87.20
2023-01-17T20:11:16.104Z,87.14
2023-01-17T20:13:43.083Z,87.09
2023-01-17T20:16:15.527Z,86.93
2023-01-17T20:18:43.423Z,87.22
2023-01-17T20:21:13.360Z,86.92
2023-01-17T20:23:48.719Z,86.92
2023-01-17T20:26:19.203Z,87.05
2023-01-17T20:28:47.635Z,87.06
2023-01-17T20:31:20.708Z,87.13
2023-01-17T20:33:50.686Z,86.93
2023-01-17T20:36:18.455Z,87.13
2023-01-17T20:38:48.237Z,87.35
2023-01-17T20:41:23.101Z,87.29
2023-01-17T20:43:52.505Z,87.37
2023-01-17T20:46:25.085Z,87.44
2023-01-17T20:48:54.771Z,87.43
2023-01-17T20:51:23.269Z,87.32
2023-01-17T20:53:51.828Z,87.42
2023-01-17T20:56:19.159Z,87.32
2023-01-17T20:58:51.650Z,87.51
2023-01-17T21:01:21.791Z,87.40
2023-01-17T21:03:51.908Z,87.52
2023-01-17T21:06:20.119Z,87.57
2023-01-17T21:08:47.548Z,87.40
2023-01-17T21:11:17.204Z,87.24
2023-01-17T21:13:44.486Z,87.15
2023-01-17T21:16:16.520Z,87.32
2023-01-17T21:18:43.672Z,87.46
2023-01-17T21:21:22.458Z,87.55
2023-01-17T21:23:53.529Z,87.36
2023-01-17T21:26:25.832Z,87.42
2023-01-17T21:28:57.992Z,87.36
2023-01-17T21:31:27.393Z,87.39
2023-01-17T21:34:01.782Z,87.41
2023-01-17T21:36:33.939Z,87.65
2023-01-17T21:39:04.828Z,87.52
2023-01-17T21:41:38.186Z,87.55
2023-01-17T21:44:13.146Z,87.55
2023-01-17T21:46:42.732Z,87.47
2023-01-17T21:49:13.078Z,87.51
2023-01-17T21:52:03.966Z,87.50
2023-01-17T21:54:52.583Z,87.71
2023-01-17T21:57:40.224Z,87.74
2023-01-17T22:00:14.477Z,87.79
2023-01-17T22:02:42.697Z,87.89
2023-01-17T22:05:10.179Z,88.03
2023-01-17T22:07:38.973Z,88.00
2023-01-17T22:10:07.552Z,88.08
2023-01-17T22:12:35.259Z,88.13
2023-01-17T22:15:01.816Z,88.26
2023-01-17T22:17:29.816Z,88.04
2023-01-17T22:19:56.745Z,88.32
2023-01-17T22:22:23.752Z,88.41
2023-01-17T22:24:53.360Z,88.55
2023-01-17T22:27:20.503Z,88.41
2023-01-17T22:29:47.074Z,88.68
2023-01-17T22:32:13.622Z,88.76
2023-01-17T22:34:40.636Z,88.75
2023-01-17T22:37:10.204Z,88.82
2023-01-17T22:39:38.327Z,88.80
2023-01-17T22:42:06.232Z,88.69
2023-01-17T22:44:33.758Z,88.69
2023-01-17T22:47:00.486Z,88.79
2023-01-17T22:49:28.578Z,88.66
2023-01-17T22:51:56.642Z,88.84
2023-01-17T22:54:23.659Z,88.69
2023-01-17T22:56:50.880Z,88.67
2023-01-17T22:59:21.380Z,88.71
2023-01-17T23:01:50.309Z,88.91
2023-01-17T23:04:17.319Z,88.86
2023-01-17T23:06:45.755Z,88.81
2023-01-17T23:09:14.740Z,88.80
2023-01-17T23:11:47.837Z,88.91
2023-01-17T23:14:16.258Z,88.92
2023-01-17T23:17:07.751Z,89.22
2023-01-17T23:19:42.325Z,89.16
2023-01-17T23:22:22.087Z,89.28
2023-01-17T23:24:50.875Z,89.37
2023-01-17T23:27:39.426Z,89.34
2023-01-17T23:30:10.799Z,89.45
2023-01-17T23:32:44.424Z,89.32
2023-01-17T23:35:14.120Z,89.58
2023-01-17T23:37:59.848Z,89.59
2023-01-17T23:40:26.479Z,89.69
2023-01-17T23:43:11.996Z,89.89
2023-01-17T23:45:39.474Z,89.91
2023-01-17T23:48:09.650Z,89.96
2023-01-17T23:50:38.576Z,89.89
2023-01-17T23:53:08.486Z,90.03
2023-01-17T23:55:37.068Z,89.93
2023-01-17T23:58:03.820Z,90.00
